sensor_id;sensor_type;location;lat;lon;timestamp;P1;durP1;ratioP1;P2;durP2;ratioP2
1725;SDS011;41776;48.260;8.928;2023-05-10T00:01:54;1.70;;;0.80;;
1725;SDS011;41776;48.260;8.928;2023-05-10T00:04:21;0.90;;;0.50;;
1725;SDS011;41776;48.260;8.928;2023-05-10T00:06:47;2.67;;;0.47;;
1725;SDS011;41776;48.260;8.928;2023-05-10T00:09:14;0.83;;;0.63;;
1725;SDS011;41776;48.260;8.928;2023-05-10T00:11:40;0.60;;;0.60;;
1725;SDS011;41776;48.260;8.928;2023-05-10T00:14:08;0.50;;;0.50;;
1725;SDS011;41776;48.260;8.928;2023-05-10T00:16:35;0.53;;;0.53;;
1725;SDS011;41776;48.260;8.928;2023-05-10T00:19:01;1.50;;;0.73;;
1725;SDS011;41776;48.260;8.928;2023-05-10T00:21:27;0.70;;;0.50;;
1725;SDS011;41776;48.260;8.928;2023-05-10T00:23:54;0.40;;;0.40;;
1725;SDS011;41776;48.260;8.928;2023-05-10T00:26:21;0.67;;;0.67;;
1725;SDS011;41776;48.260;8.928;2023-05-10T00:28:47;0.50;;;0.50;;
1725;SDS011;41776;48.260;8.928;2023-05-10T00:31:15;0.70;;;0.50;;
1725;SDS011;41776;48.260;8.928;2023-05-10T00:33:41;2.93;;;0.57;;
1725;SDS011;41776;48.260;8.928;2023-05-10T00:36:10;0.40;;;0.40;;
1725;SDS011;41776;48.260;8.928;2023-05-10T00:38:36;2.93;;;0.63;;
1725;SDS011;41776;48.260;8.928;2023-05-10T00:41:03;2.33;;;0.50;;
1725;SDS011;41776;48.260;8.928;2023-05-10T00:43:31;0.57;;;0.50;;
1725;SDS011;41776;48.260;8.928;2023-05-10T00:45:58;0.50;;;0.50;;
1725;SDS011;41776;48.260;8.928;2023-05-10T00:48:26;0.73;;;0.60;;
1725;SDS011;41776;48.260;8.928;2023-05-10T00:50:52;1.43;;;0.70;;
1725;SDS011;41776;48.260;8.928;2023-05-10T00:53:21;0.70;;;0.60;;
1725;SDS011;41776;48.260;8.928;2023-05-10T00:55:47;0.70;;;0.60;;
1725;SDS011;41776;48.260;8.928;2023-05-10T00:58:14;3.17;;;0.60;;
1725;SDS011;41776;48.260;8.928;2023-05-10T01:00:41;1.47;;;0.60;;
1725;SDS011;41776;48.260;8.928;2023-05-10T01:03:09;0.93;;;0.70;;
1725;SDS011;41776;48.260;8.928;2023-05-10T01:05:39;2.20;;;0.60;;
1725;SDS011;41776;48.260;8.928;2023-05-10T01:08:08;0.87;;;0.87;;
1725;SDS011;41776;48.260;8.928;2023-05-10T01:10:35;2.60;;;0.70;;
1725;SDS011;41776;48.260;8.928;2023-05-10T01:13:07;2.37;;;0.70;;
1725;SDS011;41776;48.260;8.928;2023-05-10T01:15:33;3.03;;;0.80;;
1725;SDS011;41776;48.260;8.928;2023-05-10T01:18:00;3.50;;;0.80;;
1725;SDS011;41776;48.260;8.928;2023-05-10T01:20:28;1.67;;;0.60;;
1725;SDS011;41776;48.260;8.928;2023-05-10T01:23:22;1.00;;;1.00;;
1725;SDS011;41776;48.260;8.928;2023-05-10T01:26:07;1.43;;;0.80;;
1725;SDS011;41776;48.260;8.928;2023-05-10T01:31:55;1.70;;;0.80;;
1725;SDS011;41776;48.260;8.928;2023-05-10T01:34:44;1.57;;;0.70;;
1725;SDS011;41776;48.260;8.928;2023-05-10T01:37:18;2.97;;;1.10;;
1725;SDS011;41776;48.260;8.928;2023-05-10T01:39:49;0.80;;;0.80;;
1725;SDS011;41776;48.260;8.928;2023-05-10T01:42:25;1.40;;;0.90;;
1725;SDS011;41776;48.260;8.928;2023-05-10T01:44:58;1.93;;;0.87;;
1725;SDS011;41776;48.260;8.928;2023-05-10T01:47:33;0.70;;;0.70;;
1725;SDS011;41776;48.260;8.928;2023-05-10T01:50:04;1.67;;;0.70;;
1725;SDS011;41776;48.260;8.928;2023-05-10T01:52:36;1.37;;;1.00;;
1725;SDS011;41776;48.260;8.928;2023-05-10T01:55:07;1.17;;;0.67;;
1725;SDS011;41776;48.260;8.928;2023-05-10T01:57:39;0.80;;;0.80;;
1725;SDS011;41776;48.260;8.928;2023-05-10T02:00:08;1.17;;;0.90;;
1725;SDS011;41776;48.260;8.928;2023-05-10T02:02:40;0.77;;;0.77;;
1725;SDS011;41776;48.260;8.928;2023-05-10T02:05:11;1.10;;;1.00;;
1725;SDS011;41776;48.260;8.928;2023-05-10T02:07:43;1.17;;;0.87;;
1725;SDS011;41776;48.260;8.928;2023-05-10T02:10:10;4.47;;;1.40;;
1725;SDS011;41776;48.260;8.928;2023-05-10T02:12:40;0.77;;;0.77;;
1725;SDS011;41776;48.260;8.928;2023-05-10T02:15:10;6.37;;;0.97;;
1725;SDS011;41776;48.260;8.928;2023-05-10T02:17:41;0.70;;;0.70;;
1725;SDS011;41776;48.260;8.928;2023-05-10T02:20:08;0.63;;;0.63;;
1725;SDS011;41776;48.260;8.928;2023-05-10T02:22:36;1.20;;;0.70;;
1725;SDS011;41776;48.260;8.928;2023-05-10T02:25:05;2.60;;;0.83;;
1725;SDS011;41776;48.260;8.928;2023-05-10T02:27:34;3.03;;;0.87;;
1725;SDS011;41776;48.260;8.928;2023-05-10T02:30:03;3.03;;;0.80;;
1725;SDS011;41776;48.260;8.928;2023-05-10T02:32:31;1.23;;;0.90;;
1725;SDS011;41776;48.260;8.928;2023-05-10T02:35:01;2.17;;;1.00;;
1725;SDS011;41776;48.260;8.928;2023-05-10T02:37:29;1.17;;;1.07;;
1725;SDS011;41776;48.260;8.928;2023-05-10T02:39:57;1.37;;;1.10;;
1725;SDS011;41776;48.260;8.928;2023-05-10T02:42:28;1.90;;;1.07;;
1725;SDS011;41776;48.260;8.928;2023-05-10T02:44:59;2.63;;;1.00;;
1725;SDS011;41776;48.260;8.928;2023-05-10T02:47:27;1.87;;;1.00;;
1725;SDS011;41776;48.260;8.928;2023-05-10T02:50:06;2.03;;;0.87;;
1725;SDS011;41776;48.260;8.928;2023-05-10T02:52:37;4.93;;;1.10;;
1725;SDS011;41776;48.260;8.928;2023-05-10T02:55:06;0.90;;;0.90;;
1725;SDS011;41776;48.260;8.928;2023-05-10T02:57:38;0.70;;;0.70;;
1725;SDS011;41776;48.260;8.928;2023-05-10T03:00:09;1.57;;;1.20;;
1725;SDS011;41776;48.260;8.928;2023-05-10T03:02:36;2.00;;;0.90;;
1725;SDS011;41776;48.260;8.928;2023-05-10T03:05:04;1.77;;;0.90;;
1725;SDS011;41776;48.260;8.928;2023-05-10T03:07:31;3.03;;;1.30;;
1725;SDS011;41776;48.260;8.928;2023-05-10T03:09:58;1.33;;;1.10;;
1725;SDS011;41776;48.260;8.928;2023-05-10T03:12:27;2.30;;;1.20;;
1725;SDS011;41776;48.260;8.928;2023-05-10T03:15:07;5.93;;;1.20;;
1725;SDS011;41776;48.260;8.928;2023-05-10T03:17:41;3.97;;;1.30;;
1725;SDS011;41776;48.260;8.928;2023-05-10T03:20:16;2.17;;;1.20;;
1725;SDS011;41776;48.260;8.928;2023-05-10T03:22:50;1.10;;;0.90;;
1725;SDS011;41776;48.260;8.928;2023-05-10T03:25:19;6.30;;;1.57;;
1725;SDS011;41776;48.260;8.928;2023-05-10T03:27:47;4.57;;;1.43;;
1725;SDS011;41776;48.260;8.928;2023-05-10T03:30:15;1.47;;;1.20;;
1725;SDS011;41776;48.260;8.928;2023-05-10T03:32:42;2.47;;;1.50;;
1725;SDS011;41776;48.260;8.928;2023-05-10T03:35:08;2.57;;;1.73;;
1725;SDS011;41776;48.260;8.928;2023-05-10T03:37:38;2.07;;;1.40;;
1725;SDS011;41776;48.260;8.928;2023-05-10T03:40:05;2.37;;;1.40;;
1725;SDS011;41776;48.260;8.928;2023-05-10T03:42:32;3.23;;;1.53;;
1725;SDS011;41776;48.260;8.928;2023-05-10T03:45:01;3.60;;;1.37;;
1725;SDS011;41776;48.260;8.928;2023-05-10T03:47:27;3.23;;;1.33;;
1725;SDS011;41776;48.260;8.928;2023-05-10T03:49:56;1.90;;;1.30;;
1725;SDS011;41776;48.260;8.928;2023-05-10T03:52:25;2.27;;;1.30;;
1725;SDS011;41776;48.260;8.928;2023-05-10T03:54:52;3.87;;;1.30;;
1725;SDS011;41776;48.260;8.928;2023-05-10T03:57:21;1.40;;;1.30;;
1725;SDS011;41776;48.260;8.928;2023-05-10T03:59:48;2.93;;;1.13;;
1725;SDS011;41776;48.260;8.928;2023-05-10T04:02:17;4.87;;;1.40;;
1725;SDS011;41776;48.260;8.928;2023-05-10T04:04:43;4.40;;;1.30;;
1725;SDS011;41776;48.260;8.928;2023-05-10T04:07:10;3.10;;;1.50;;
1725;SDS011;41776;48.260;8.928;2023-05-10T04:09:36;1.87;;;1.40;;
1725;SDS011;41776;48.260;8.928;2023-05-10T04:12:04;4.53;;;1.50;;
1725;SDS011;41776;48.260;8.928;2023-05-10T04:14:31;1.80;;;1.40;;
1725;SDS011;41776;48.260;8.928;2023-05-10T04:16:58;1.40;;;1.30;;
1725;SDS011;41776;48.260;8.928;2023-05-10T04:19:28;2.50;;;1.30;;
1725;SDS011;41776;48.260;8.928;2023-05-10T04:21:55;2.17;;;1.40;;
1725;SDS011;41776;48.260;8.928;2023-05-10T04:24:21;3.00;;;1.83;;
1725;SDS011;41776;48.260;8.928;2023-05-10T04:26:48;1.97;;;1.37;;
1725;SDS011;41776;48.260;8.928;2023-05-10T04:29:20;1.83;;;1.43;;
1725;SDS011;41776;48.260;8.928;2023-05-10T04:31:49;1.93;;;1.40;;
1725;SDS011;41776;48.260;8.928;2023-05-10T04:34:15;5.70;;;1.67;;
1725;SDS011;41776;48.260;8.928;2023-05-10T04:36:44;2.70;;;1.77;;
1725;SDS011;41776;48.260;8.928;2023-05-10T04:39:12;2.67;;;1.40;;
1725;SDS011;41776;48.260;8.928;2023-05-10T04:41:39;2.07;;;1.50;;
1725;SDS011;41776;48.260;8.928;2023-05-10T04:44:06;3.17;;;1.50;;
1725;SDS011;41776;48.260;8.928;2023-05-10T04:46:33;1.73;;;1.50;;
1725;SDS011;41776;48.260;8.928;2023-05-10T04:49:00;1.50;;;1.40;;
1725;SDS011;41776;48.260;8.928;2023-05-10T04:51:29;2.83;;;1.50;;
1725;SDS011;41776;48.260;8.928;2023-05-10T04:53:56;7.70;;;1.63;;
1725;SDS011;41776;48.260;8.928;2023-05-10T04:56:22;1.60;;;1.40;;
1725;SDS011;41776;48.260;8.928;2023-05-10T04:58:49;6.97;;;1.70;;
1725;SDS011;41776;48.260;8.928;2023-05-10T05:01:15;2.13;;;1.60;;
1725;SDS011;41776;48.260;8.928;2023-05-10T05:03:43;2.13;;;1.30;;
1725;SDS011;41776;48.260;8.928;2023-05-10T05:06:09;2.40;;;1.47;;
1725;SDS011;41776;48.260;8.928;2023-05-10T05:08:36;5.53;;;1.50;;
1725;SDS011;41776;48.260;8.928;2023-05-10T05:11:02;2.23;;;1.30;;
1725;SDS011;41776;48.260;8.928;2023-05-10T05:13:29;1.87;;;1.20;;
1725;SDS011;41776;48.260;8.928;2023-05-10T05:15:55;2.53;;;1.30;;
1725;SDS011;41776;48.260;8.928;2023-05-10T05:18:22;1.97;;;1.40;;
1725;SDS011;41776;48.260;8.928;2023-05-10T05:20:50;2.10;;;1.43;;
1725;SDS011;41776;48.260;8.928;2023-05-10T05:23:16;3.40;;;1.80;;
1725;SDS011;41776;48.260;8.928;2023-05-10T05:25:43;2.23;;;1.80;;
1725;SDS011;41776;48.260;8.928;2023-05-10T05:28:09;5.00;;;1.80;;
1725;SDS011;41776;48.260;8.928;2023-05-10T05:30:36;6.20;;;1.30;;
1725;SDS011;41776;48.260;8.928;2023-05-10T05:33:02;1.60;;;1.20;;
1725;SDS011;41776;48.260;8.928;2023-05-10T05:35:29;2.17;;;1.40;;
1725;SDS011;41776;48.260;8.928;2023-05-10T05:37:57;2.23;;;1.33;;
1725;SDS011;41776;48.260;8.928;2023-05-10T05:40:26;2.07;;;1.00;;
1725;SDS011;41776;48.260;8.928;2023-05-10T05:42:52;1.13;;;0.90;;
1725;SDS011;41776;48.260;8.928;2023-05-10T05:45:18;3.73;;;1.00;;
1725;SDS011;41776;48.260;8.928;2023-05-10T05:47:46;5.90;;;1.00;;
1725;SDS011;41776;48.260;8.928;2023-05-10T05:50:15;1.10;;;0.80;;
1725;SDS011;41776;48.260;8.928;2023-05-10T05:52:41;1.00;;;0.90;;
1725;SDS011;41776;48.260;8.928;2023-05-10T05:55:09;0.87;;;0.87;;
1725;SDS011;41776;48.260;8.928;2023-05-10T05:57:36;1.10;;;0.80;;
1725;SDS011;41776;48.260;8.928;2023-05-10T06:00:02;0.97;;;0.87;;
1725;SDS011;41776;48.260;8.928;2023-05-10T06:02:30;1.23;;;0.80;;
1725;SDS011;41776;48.260;8.928;2023-05-10T06:04:56;2.90;;;0.73;;
1725;SDS011;41776;48.260;8.928;2023-05-10T06:07:22;1.63;;;0.80;;
1725;SDS011;41776;48.260;8.928;2023-05-10T06:09:49;1.00;;;0.90;;
1725;SDS011;41776;48.260;8.928;2023-05-10T06:12:17;1.33;;;1.00;;
1725;SDS011;41776;48.260;8.928;2023-05-10T06:14:45;0.73;;;0.70;;
1725;SDS011;41776;48.260;8.928;2023-05-10T06:17:12;1.90;;;0.60;;
1725;SDS011;41776;48.260;8.928;2023-05-10T06:19:38;0.77;;;0.77;;
1725;SDS011;41776;48.260;8.928;2023-05-10T06:22:05;3.30;;;0.90;;
1725;SDS011;41776;48.260;8.928;2023-05-10T06:24:31;0.97;;;0.90;;
1725;SDS011;41776;48.260;8.928;2023-05-10T06:26:59;2.00;;;1.00;;
1725;SDS011;41776;48.260;8.928;2023-05-10T06:29:28;2.80;;;0.80;;
1725;SDS011;41776;48.260;8.928;2023-05-10T06:31:54;1.80;;;0.80;;
1725;SDS011;41776;48.260;8.928;2023-05-10T06:34:25;1.83;;;0.90;;
1725;SDS011;41776;48.260;8.928;2023-05-10T06:36:54;1.58;;;0.90;;
1725;SDS011;41776;48.260;8.928;2023-05-10T06:39:20;0.70;;;0.60;;
1725;SDS011;41776;48.260;8.928;2023-05-10T06:41:50;1.25;;;0.73;;
1725;SDS011;41776;48.260;8.928;2023-05-10T06:44:18;0.80;;;0.70;;
1725;SDS011;41776;48.260;8.928;2023-05-10T06:46:45;1.70;;;0.90;;
1725;SDS011;41776;48.260;8.928;2023-05-10T06:49:12;1.13;;;1.00;;
1725;SDS011;41776;48.260;8.928;2023-05-10T06:51:38;1.15;;;0.80;;
1725;SDS011;41776;48.260;8.928;2023-05-10T06:54:07;3.53;;;0.80;;
1725;SDS011;41776;48.260;8.928;2023-05-10T06:56:34;5.57;;;0.88;;
1725;SDS011;41776;48.260;8.928;2023-05-10T06:59:00;1.08;;;0.90;;
1725;SDS011;41776;48.260;8.928;2023-05-10T07:01:27;1.55;;;1.00;;
1725;SDS011;41776;48.260;8.928;2023-05-10T07:03:55;1.42;;;0.90;;
1725;SDS011;41776;48.260;8.928;2023-05-10T07:06:24;1.15;;;0.93;;
1725;SDS011;41776;48.260;8.928;2023-05-10T07:08:51;2.20;;;1.13;;
1725;SDS011;41776;48.260;8.928;2023-05-10T07:11:17;1.25;;;0.85;;
1725;SDS011;41776;48.260;8.928;2023-05-10T07:13:44;0.90;;;0.80;;
1725;SDS011;41776;48.260;8.928;2023-05-10T07:16:11;2.83;;;0.90;;
1725;SDS011;41776;48.260;8.928;2023-05-10T07:18:37;1.67;;;0.90;;
1725;SDS011;41776;48.260;8.928;2023-05-10T07:21:05;1.13;;;0.90;;
1725;SDS011;41776;48.260;8.928;2023-05-10T07:23:32;1.10;;;1.00;;
1725;SDS011;41776;48.260;8.928;2023-05-10T07:25:58;2.80;;;0.98;;
1725;SDS011;41776;48.260;8.928;2023-05-10T07:28:25;0.95;;;0.80;;
1725;SDS011;41776;48.260;8.928;2023-05-10T07:30:51;3.55;;;0.80;;
1725;SDS011;41776;48.260;8.928;2023-05-10T07:33:18;1.00;;;0.93;;
1725;SDS011;41776;48.260;8.928;2023-05-10T07:35:47;1.25;;;0.80;;
1725;SDS011;41776;48.260;8.928;2023-05-10T07:38:15;3.03;;;1.03;;
1725;SDS011;41776;48.260;8.928;2023-05-10T07:40:42;1.97;;;1.10;;
1725;SDS011;41776;48.260;8.928;2023-05-10T07:43:08;1.15;;;0.90;;
1725;SDS011;41776;48.260;8.928;2023-05-10T07:45:35;2.20;;;0.93;;
1725;SDS011;41776;48.260;8.928;2023-05-10T07:48:01;1.20;;;0.93;;
1725;SDS011;41776;48.260;8.928;2023-05-10T07:50:28;0.80;;;0.80;;
1725;SDS011;41776;48.260;8.928;2023-05-10T07:52:54;0.88;;;0.80;;
1725;SDS011;41776;48.260;8.928;2023-05-10T07:55:25;3.00;;;1.35;;
1725;SDS011;41776;48.260;8.928;2023-05-10T07:57:52;2.42;;;1.20;;
1725;SDS011;41776;48.260;8.928;2023-05-10T08:00:19;1.47;;;1.13;;
1725;SDS011;41776;48.260;8.928;2023-05-10T08:02:46;5.20;;;1.03;;
1725;SDS011;41776;48.260;8.928;2023-05-10T08:05:13;2.60;;;1.20;;
1725;SDS011;41776;48.260;8.928;2023-05-10T08:07:40;1.17;;;0.90;;
1725;SDS011;41776;48.260;8.928;2023-05-10T08:10:08;1.37;;;0.90;;
1725;SDS011;41776;48.260;8.928;2023-05-10T08:12:37;5.30;;;1.10;;
1725;SDS011;41776;48.260;8.928;2023-05-10T08:15:04;1.87;;;0.80;;
1725;SDS011;41776;48.260;8.928;2023-05-10T08:17:34;1.50;;;0.90;;
1725;SDS011;41776;48.260;8.928;2023-05-10T08:20:00;0.80;;;0.80;;
1725;SDS011;41776;48.260;8.928;2023-05-10T08:22:27;2.00;;;1.03;;
1725;SDS011;41776;48.260;8.928;2023-05-10T08:24:53;1.43;;;0.87;;
1725;SDS011;41776;48.260;8.928;2023-05-10T08:27:20;2.50;;;1.00;;
1725;SDS011;41776;48.260;8.928;2023-05-10T08:29:48;1.13;;;1.03;;
1725;SDS011;41776;48.260;8.928;2023-05-10T08:32:15;1.33;;;1.10;;
1725;SDS011;41776;48.260;8.928;2023-05-10T08:34:42;1.37;;;1.00;;
1725;SDS011;41776;48.260;8.928;2023-05-10T08:37:08;0.97;;;0.73;;
1725;SDS011;41776;48.260;8.928;2023-05-10T08:39:37;0.73;;;0.73;;
1725;SDS011;41776;48.260;8.928;2023-05-10T08:42:04;1.60;;;0.97;;
1725;SDS011;41776;48.260;8.928;2023-05-10T08:44:34;1.10;;;0.70;;
1725;SDS011;41776;48.260;8.928;2023-05-10T08:47:04;1.40;;;0.80;;
1725;SDS011;41776;48.260;8.928;2023-05-10T08:49:32;2.50;;;0.70;;
1725;SDS011;41776;48.260;8.928;2023-05-10T08:51:59;2.20;;;0.60;;
1725;SDS011;41776;48.260;8.928;2023-05-10T08:54:31;0.63;;;0.63;;
1725;SDS011;41776;48.260;8.928;2023-05-10T08:56:57;1.93;;;0.70;;
1725;SDS011;41776;48.260;8.928;2023-05-10T08:59:27;2.63;;;0.60;;
1725;SDS011;41776;48.260;8.928;2023-05-10T09:01:55;4.43;;;0.80;;
1725;SDS011;41776;48.260;8.928;2023-05-10T09:04:24;2.47;;;0.73;;
1725;SDS011;41776;48.260;8.928;2023-05-10T09:06:51;2.90;;;0.80;;
1725;SDS011;41776;48.260;8.928;2023-05-10T09:09:18;1.05;;;0.73;;
1725;SDS011;41776;48.260;8.928;2023-05-10T09:11:46;2.80;;;0.80;;
1725;SDS011;41776;48.260;8.928;2023-05-10T09:14:13;3.50;;;0.60;;
1725;SDS011;41776;48.260;8.928;2023-05-10T09:16:42;1.45;;;0.50;;
1725;SDS011;41776;48.260;8.928;2023-05-10T09:19:08;0.60;;;0.50;;
1725;SDS011;41776;48.260;8.928;2023-05-10T09:21:37;0.55;;;0.45;;
1725;SDS011;41776;48.260;8.928;2023-05-10T09:24:04;0.98;;;0.52;;
1725;SDS011;41776;48.260;8.928;2023-05-10T09:26:33;0.85;;;0.70;;
1725;SDS011;41776;48.260;8.928;2023-05-10T09:29:00;4.90;;;0.90;;
1725;SDS011;41776;48.260;8.928;2023-05-10T09:31:43;1.52;;;0.70;;
1725;SDS011;41776;48.260;8.928;2023-05-10T09:34:11;0.98;;;0.60;;
1725;SDS011;41776;48.260;8.928;2023-05-10T09:36:53;3.05;;;0.75;;
1725;SDS011;41776;48.260;8.928;2023-05-10T09:39:21;4.47;;;0.70;;
1725;SDS011;41776;48.260;8.928;2023-05-10T09:41:56;1.65;;;0.60;;
1725;SDS011;41776;48.260;8.928;2023-05-10T09:44:24;0.77;;;0.57;;
1725;SDS011;41776;48.260;8.928;2023-05-10T09:46:51;1.00;;;0.60;;
1725;SDS011;41776;48.260;8.928;2023-05-10T09:49:21;0.60;;;0.60;;
1725;SDS011;41776;48.260;8.928;2023-05-10T09:54:31;1.65;;;1.05;;
1725;SDS011;41776;48.260;8.928;2023-05-10T09:57:01;1.23;;;0.50;;
1725;SDS011;41776;48.260;8.928;2023-05-10T09:59:28;2.17;;;0.70;;
1725;SDS011;41776;48.260;8.928;2023-05-10T10:01:56;6.47;;;0.80;;
1725;SDS011;41776;48.260;8.928;2023-05-10T10:04:24;1.50;;;0.60;;
1725;SDS011;41776;48.260;8.928;2023-05-10T10:07:00;2.40;;;0.63;;
1725;SDS011;41776;48.260;8.928;2023-05-10T10:09:29;3.25;;;1.02;;
1725;SDS011;41776;48.260;8.928;2023-05-10T10:11:55;3.63;;;0.95;;
1725;SDS011;41776;48.260;8.928;2023-05-10T10:14:22;3.55;;;0.60;;
1725;SDS011;41776;48.260;8.928;2023-05-10T10:16:49;1.85;;;0.70;;
1725;SDS011;41776;48.260;8.928;2023-05-10T10:19:19;1.42;;;0.63;;
1725;SDS011;41776;48.260;8.928;2023-05-10T10:21:47;1.20;;;0.70;;
1725;SDS011;41776;48.260;8.928;2023-05-10T10:24:13;0.75;;;0.57;;
1725;SDS011;41776;48.260;8.928;2023-05-10T10:26:41;2.90;;;0.50;;
1725;SDS011;41776;48.260;8.928;2023-05-10T10:29:12;0.70;;;0.70;;
1725;SDS011;41776;48.260;8.928;2023-05-10T10:31:47;2.90;;;0.60;;
1725;SDS011;41776;48.260;8.928;2023-05-10T10:34:25;2.65;;;0.65;;
1725;SDS011;41776;48.260;8.928;2023-05-10T10:36:55;0.80;;;0.55;;
1725;SDS011;41776;48.260;8.928;2023-05-10T10:39:24;4.82;;;0.70;;
1725;SDS011;41776;48.260;8.928;2023-05-10T10:41:52;1.35;;;0.60;;
1725;SDS011;41776;48.260;8.928;2023-05-10T10:44:23;1.95;;;0.75;;
1725;SDS011;41776;48.260;8.928;2023-05-10T10:47:07;1.95;;;0.70;;
1725;SDS011;41776;48.260;8.928;2023-05-10T10:50:01;4.05;;;0.77;;
1725;SDS011;41776;48.260;8.928;2023-05-10T10:52:33;1.45;;;0.60;;
1725;SDS011;41776;48.260;8.928;2023-05-10T10:55:01;0.60;;;0.60;;
1725;SDS011;41776;48.260;8.928;2023-05-10T10:57:35;14.27;;;2.78;;
1725;SDS011;41776;48.260;8.928;2023-05-10T11:03:05;5.05;;;0.80;;
1725;SDS011;41776;48.260;8.928;2023-05-10T11:05:36;3.35;;;0.60;;
1725;SDS011;41776;48.260;8.928;2023-05-10T11:08:11;1.63;;;0.60;;
1725;SDS011;41776;48.260;8.928;2023-05-10T11:10:49;8.57;;;1.40;;
1725;SDS011;41776;48.260;8.928;2023-05-10T11:13:30;10.13;;;1.38;;
1725;SDS011;41776;48.260;8.928;2023-05-10T11:15:57;1.05;;;0.68;;
1725;SDS011;41776;48.260;8.928;2023-05-10T11:18:25;6.22;;;1.20;;
1725;SDS011;41776;48.260;8.928;2023-05-10T11:20:55;3.65;;;0.70;;
1725;SDS011;41776;48.260;8.928;2023-05-10T11:23:23;1.38;;;0.70;;
1725;SDS011;41776;48.260;8.928;2023-05-10T11:25:55;0.80;;;0.60;;
1725;SDS011;41776;48.260;8.928;2023-05-10T11:28:22;4.32;;;0.57;;
1725;SDS011;41776;48.260;8.928;2023-05-10T11:30:50;1.65;;;0.40;;
1725;SDS011;41776;48.260;8.928;2023-05-10T11:33:17;1.95;;;0.70;;
1725;SDS011;41776;48.260;8.928;2023-05-10T11:35:45;2.30;;;0.73;;
1725;SDS011;41776;48.260;8.928;2023-05-10T11:38:12;1.00;;;0.68;;
1725;SDS011;41776;48.260;8.928;2023-05-10T11:40:40;2.58;;;0.70;;
1725;SDS011;41776;48.260;8.928;2023-05-10T11:43:08;3.30;;;0.70;;
1725;SDS011;41776;48.260;8.928;2023-05-10T11:45:35;1.55;;;0.80;;
1725;SDS011;41776;48.260;8.928;2023-05-10T11:48:03;3.13;;;0.70;;
1725;SDS011;41776;48.260;8.928;2023-05-10T11:50:30;3.53;;;0.90;;
1725;SDS011;41776;48.260;8.928;2023-05-10T11:52:56;3.33;;;0.80;;
1725;SDS011;41776;48.260;8.928;2023-05-10T11:55:23;2.53;;;1.10;;
1725;SDS011;41776;48.260;8.928;2023-05-10T11:57:51;3.17;;;0.98;;
1725;SDS011;41776;48.260;8.928;2023-05-10T12:00:19;1.15;;;0.90;;
1725;SDS011;41776;48.260;8.928;2023-05-10T12:02:51;4.95;;;1.10;;
1725;SDS011;41776;48.260;8.928;2023-05-10T12:05:19;2.17;;;0.90;;
1725;SDS011;41776;48.260;8.928;2023-05-10T12:07:46;8.23;;;0.80;;
1725;SDS011;41776;48.260;8.928;2023-05-10T12:10:13;3.75;;;0.90;;
1725;SDS011;41776;48.260;8.928;2023-05-10T12:12:40;6.03;;;0.80;;
1725;SDS011;41776;48.260;8.928;2023-05-10T12:15:12;1.85;;;0.68;;
1725;SDS011;41776;48.260;8.928;2023-05-10T12:17:43;1.92;;;0.80;;
1725;SDS011;41776;48.260;8.928;2023-05-10T12:20:13;1.33;;;0.75;;
1725;SDS011;41776;48.260;8.928;2023-05-10T12:22:44;2.75;;;0.77;;
1725;SDS011;41776;48.260;8.928;2023-05-10T12:25:12;2.97;;;0.82;;
1725;SDS011;41776;48.260;8.928;2023-05-10T12:27:38;1.83;;;0.52;;
1725;SDS011;41776;48.260;8.928;2023-05-10T12:30:05;2.45;;;0.65;;
1725;SDS011;41776;48.260;8.928;2023-05-10T12:32:39;4.68;;;1.00;;
1725;SDS011;41776;48.260;8.928;2023-05-10T12:35:06;3.33;;;0.82;;
1725;SDS011;41776;48.260;8.928;2023-05-10T12:37:34;3.88;;;0.77;;
1725;SDS011;41776;48.260;8.928;2023-05-10T12:40:06;4.53;;;0.90;;
1725;SDS011;41776;48.260;8.928;2023-05-10T12:42:34;2.22;;;0.70;;
1725;SDS011;41776;48.260;8.928;2023-05-10T12:45:01;2.67;;;0.77;;
1725;SDS011;41776;48.260;8.928;2023-05-10T12:47:28;1.65;;;0.70;;
1725;SDS011;41776;48.260;8.928;2023-05-10T12:49:56;2.65;;;0.75;;
1725;SDS011;41776;48.260;8.928;2023-05-10T12:52:22;2.97;;;0.63;;
1725;SDS011;41776;48.260;8.928;2023-05-10T12:54:48;3.83;;;0.88;;
1725;SDS011;41776;48.260;8.928;2023-05-10T12:57:16;1.35;;;0.80;;
1725;SDS011;41776;48.260;8.928;2023-05-10T12:59:43;4.53;;;0.93;;
1725;SDS011;41776;48.260;8.928;2023-05-10T13:02:09;3.60;;;0.77;;
1725;SDS011;41776;48.260;8.928;2023-05-10T13:04:36;5.05;;;1.00;;
1725;SDS011;41776;48.260;8.928;2023-05-10T13:07:04;2.10;;;0.77;;
1725;SDS011;41776;48.260;8.928;2023-05-10T13:09:31;5.65;;;1.10;;
1725;SDS011;41776;48.260;8.928;2023-05-10T13:11:57;3.30;;;0.90;;
1725;SDS011;41776;48.260;8.928;2023-05-10T13:14:25;1.50;;;0.60;;
1725;SDS011;41776;48.260;8.928;2023-05-10T13:16:52;1.65;;;0.70;;
1725;SDS011;41776;48.260;8.928;2023-05-10T13:19:18;2.05;;;0.95;;
1725;SDS011;41776;48.260;8.928;2023-05-10T13:21:45;4.32;;;0.80;;
1725;SDS011;41776;48.260;8.928;2023-05-10T13:24:12;3.90;;;0.75;;
1725;SDS011;41776;48.260;8.928;2023-05-10T13:26:39;5.97;;;0.60;;
1725;SDS011;41776;48.260;8.928;2023-05-10T13:29:05;4.00;;;0.85;;
1725;SDS011;41776;48.260;8.928;2023-05-10T13:31:33;1.30;;;0.50;;
1725;SDS011;41776;48.260;8.928;2023-05-10T13:34:00;2.88;;;0.50;;
1725;SDS011;41776;48.260;8.928;2023-05-10T13:36:27;2.97;;;0.70;;
1725;SDS011;41776;48.260;8.928;2023-05-10T13:38:53;2.80;;;0.70;;
1725;SDS011;41776;48.260;8.928;2023-05-10T13:41:20;3.53;;;0.80;;
1725;SDS011;41776;48.260;8.928;2023-05-10T13:43:46;3.22;;;0.82;;
1725;SDS011;41776;48.260;8.928;2023-05-10T13:46:13;1.30;;;0.70;;
1725;SDS011;41776;48.260;8.928;2023-05-10T13:48:41;7.22;;;1.15;;
1725;SDS011;41776;48.260;8.928;2023-05-10T13:51:08;1.10;;;0.60;;
1725;SDS011;41776;48.260;8.928;2023-05-10T13:53:34;2.88;;;0.70;;
1725;SDS011;41776;48.260;8.928;2023-05-10T13:56:01;4.93;;;0.68;;
1725;SDS011;41776;48.260;8.928;2023-05-10T13:58:28;2.53;;;0.60;;
1725;SDS011;41776;48.260;8.928;2023-05-10T14:00:55;2.72;;;0.60;;
1725;SDS011;41776;48.260;8.928;2023-05-10T14:03:22;3.60;;;0.95;;
1725;SDS011;41776;48.260;8.928;2023-05-10T14:05:49;1.00;;;0.68;;
1725;SDS011;41776;48.260;8.928;2023-05-10T14:08:16;2.13;;;0.75;;
1725;SDS011;41776;48.260;8.928;2023-05-10T14:10:42;1.70;;;0.80;;
1725;SDS011;41776;48.260;8.928;2023-05-10T14:13:09;1.60;;;0.82;;
1725;SDS011;41776;48.260;8.928;2023-05-10T14:15:35;0.82;;;0.45;;
1725;SDS011;41776;48.260;8.928;2023-05-10T14:18:02;1.48;;;0.77;;
1725;SDS011;41776;48.260;8.928;2023-05-10T14:20:28;5.65;;;0.57;;
1725;SDS011;41776;48.260;8.928;2023-05-10T14:22:56;2.83;;;1.00;;
1725;SDS011;41776;48.260;8.928;2023-05-10T14:25:23;3.15;;;0.80;;
1725;SDS011;41776;48.260;8.928;2023-05-10T14:27:49;3.53;;;0.77;;
1725;SDS011;41776;48.260;8.928;2023-05-10T14:30:16;2.78;;;0.82;;
1725;SDS011;41776;48.260;8.928;2023-05-10T14:32:42;3.20;;;1.00;;
1725;SDS011;41776;48.260;8.928;2023-05-10T14:35:09;4.70;;;0.80;;
1725;SDS011;41776;48.260;8.928;2023-05-10T14:37:35;2.78;;;0.80;;
1725;SDS011;41776;48.260;8.928;2023-05-10T14:40:04;5.00;;;0.85;;
1725;SDS011;41776;48.260;8.928;2023-05-10T14:42:32;1.85;;;0.70;;
1725;SDS011;41776;48.260;8.928;2023-05-10T14:44:58;4.75;;;0.90;;
1725;SDS011;41776;48.260;8.928;2023-05-10T14:47:25;3.17;;;0.80;;
1725;SDS011;41776;48.260;8.928;2023-05-10T14:49:51;2.38;;;0.60;;
1725;SDS011;41776;48.260;8.928;2023-05-10T14:52:17;3.63;;;0.60;;
1725;SDS011;41776;48.260;8.928;2023-05-10T14:54:44;1.52;;;0.77;;
1725;SDS011;41776;48.260;8.928;2023-05-10T14:57:12;2.28;;;0.70;;
1725;SDS011;41776;48.260;8.928;2023-05-10T14:59:39;5.78;;;0.70;;
1725;SDS011;41776;48.260;8.928;2023-05-10T15:02:05;5.07;;;1.00;;
1725;SDS011;41776;48.260;8.928;2023-05-10T15:04:33;1.45;;;0.90;;
1725;SDS011;41776;48.260;8.928;2023-05-10T15:06:59;6.00;;;0.90;;
1725;SDS011;41776;48.260;8.928;2023-05-10T15:09:26;3.60;;;0.88;;
1725;SDS011;41776;48.260;8.928;2023-05-10T15:11:53;5.68;;;0.85;;
1725;SDS011;41776;48.260;8.928;2023-05-10T15:14:21;2.17;;;0.70;;
1725;SDS011;41776;48.260;8.928;2023-05-10T15:16:47;4.75;;;0.80;;